createdAt,value
2022-08-26T00:00:05.089Z,83.85
2022-08-26T00:02:32.981Z,83.98
2022-08-26T00:05:00.608Z,84.09
2022-08-26T00:07:28.305Z,84.24
2022-08-26T00:09:58.160Z,84.20
2022-08-26T00:12:27.917Z,84.12
2022-08-26T00:15:10.830Z,84.20
2022-08-26T00:17:40.358Z,84.20
2022-08-26T00:20:10.680Z,84.09
2022-08-26T00:22:41.006Z,83.93
2022-08-26T00:25:11.498Z,83.97
2022-08-26T00:27:39.915Z,83.89
2022-08-26T00:30:12.350Z,84.01
2022-08-26T00:32:41.247Z,83.98
2022-08-26T00:35:12.622Z,84.00
2022-08-26T00:37:43.005Z,83.98
2022-08-26T00:40:15.176Z,84.11
2022-08-26T00:42:46.249Z,84.02
2022-08-26T00:45:15.241Z,84.03
2022-08-26T00:47:47.400Z,84.05
2022-08-26T00:50:19.574Z,84.20
2022-08-26T00:52:48.292Z,84.28
2022-08-26T00:55:20.554Z,84.21
2022-08-26T00:57:51.534Z,84.27
2022-08-26T01:00:23.199Z,84.31
2022-08-26T01:02:51.502Z,84.51
2022-08-26T01:05:19.795Z,84.47
2022-08-26T01:07:47.553Z,84.48
2022-08-26T01:10:21.945Z,84.51
2022-08-26T01:12:56.475Z,84.53
2022-08-26T01:15:30.594Z,84.56
2022-08-26T01:18:03.252Z,84.67
2022-08-26T01:20:38.409Z,84.68
2022-08-26T01:23:08.726Z,84.67
2022-08-26T01:25:45.628Z,84.78
2022-08-26T01:28:15.644Z,84.65
2022-08-26T01:30:46.670Z,84.59
2022-08-26T01:33:18.693Z,84.60
2022-08-26T01:35:47.227Z,84.71
2022-08-26T01:38:17.007Z,84.87
2022-08-26T01:40:45.349Z,85.06
2022-08-26T01:43:17.139Z,85.21
2022-08-26T01:45:47.824Z,85.35
2022-08-26T01:48:25.698Z,85.31
2022-08-26T01:50:55.014Z,85.42
2022-08-26T01:53:24.271Z,85.46
2022-08-26T01:55:56.446Z,85.36
2022-08-26T01:58:28.123Z,85.17
2022-08-26T02:00:55.792Z,85.11
2022-08-26T02:03:26.426Z,85.20
2022-08-26T02:05:57.067Z,85.23
2022-08-26T02:08:29.018Z,85.27
2022-08-26T02:10:56.631Z,85.36
2022-08-26T02:13:29.517Z,85.60
2022-08-26T02:15:58.186Z,85.62
2022-08-26T02:18:27.828Z,85.70
2022-08-26T02:20:56.996Z,85.81
2022-08-26T02:23:25.224Z,86.03
2022-08-26T02:25:59.980Z,86.31
2022-08-26T02:28:35.479Z,86.55
2022-08-26T02:31:03.469Z,86.61
2022-08-26T02:33:32.362Z,86.47
2022-08-26T02:35:59.956Z,86.34
2022-08-26T02:38:28.764Z,86.41
2022-08-26T02:40:57.254Z,86.37
2022-08-26T02:43:31.679Z,86.18
2022-08-26T02:46:02.313Z,86.16
2022-08-26T02:48:30.665Z,86.22
2022-08-26T02:51:00.247Z,86.24
2022-08-26T02:53:28.147Z,86.23
2022-08-26T02:56:00.211Z,86.27
2022-08-26T02:58:28.015Z,86.35
2022-08-26T03:00:55.597Z,86.52
2022-08-26T03:03:23.736Z,86.57
2022-08-26T03:05:52.083Z,86.66
2022-08-26T03:08:19.656Z,86.75
2022-08-26T03:10:47.478Z,86.72
2022-08-26T03:13:16.416Z,86.81
2022-08-26T03:15:45.914Z,86.89
2022-08-26T03:18:15.827Z,86.96
2022-08-26T03:20:44.083Z,86.97
2022-08-26T03:23:12.255Z,87.02
2022-08-26T03:25:40.133Z,87.00
2022-08-26T03:28:07.835Z,87.05
2022-08-26T03:30:39.959Z,87.30
2022-08-26T03:33:14.351Z,87.44
2022-08-26T03:35:44.483Z,87.61
2022-08-26T03:38:12.313Z,87.67
2022-08-26T03:40:42.323Z,87.71
2022-08-26T03:43:11.214Z,87.83
2022-08-26T03:45:40.323Z,87.99
2022-08-26T03:48:08.836Z,88.14
2022-08-26T03:50:36.752Z,88.15
2022-08-26T03:53:04.820Z,88.37
2022-08-26T03:55:35.112Z,88.73
2022-08-26T03:58:02.893Z,88.85
2022-08-26T04:00:31.256Z,88.99
2022-08-26T04:02:59.290Z,89.22
2022-08-26T04:05:29.851Z,89.38
2022-08-26T04:07:57.895Z,89.55
2022-08-26T04:10:29.069Z,89.75
2022-08-26T04:12:59.013Z,89.87
2022-08-26T04:15:27.723Z,90.04
2022-08-26T04:17:56.007Z,90.11
2022-08-26T04:20:25.842Z,90.19
2022-08-26T04:22:53.895Z,90.33
2022-08-26T04:25:24.277Z,90.50
2022-08-26T04:27:52.177Z,90.57
2022-08-26T04:30:20.462Z,90.78
2022-08-26T04:32:49.053Z,90.84
2022-08-26T04:35:17.089Z,90.98
2022-08-26T04:37:45.083Z,91.03
2022-08-26T04:40:13.187Z,91.19
2022-08-26T04:42:40.875Z,91.27
2022-08-26T04:45:11.824Z,91.45
2022-08-26T04:47:39.837Z,91.51
2022-08-26T04:50:09.198Z,91.66
2022-08-26T04:52:39.286Z,91.78
2022-08-26T04:55:08.751Z,91.85
2022-08-26T04:57:36.779Z,92.00
2022-08-26T05:00:08.236Z,92.09
2022-08-26T05:02:36.909Z,92.20
2022-08-26T05:05:06.595Z,92.35
2022-08-26T05:07:35.130Z,92.50
2022-08-26T05:10:04.279Z,92.62
2022-08-26T05:12:36.529Z,92.63
2022-08-26T05:15:08.089Z,92.76
2022-08-26T05:17:36.145Z,92.79
2022-08-26T05:20:05.447Z,92.87
2022-08-26T05:22:34.195Z,92.93
2022-08-26T05:25:02.539Z,92.99
2022-08-26T05:27:30.401Z,93.03
2022-08-26T05:29:58.299Z,93.05
2022-08-26T05:32:26.871Z,93.05
2022-08-26T05:34:56.325Z,93.10
2022-08-26T05:37:26.763Z,93.06
2022-08-26T05:39:54.525Z,93.00
2022-08-26T05:42:22.227Z,93.00
2022-08-26T05:44:55.472Z,93.02
2022-08-26T05:47:25.593Z,93.01
2022-08-26T05:49:53.857Z,93.03
2022-08-26T05:52:21.847Z,93.08
2022-08-26T05:54:53.862Z,93.07
2022-08-26T05:57:22.694Z,92.97
2022-08-26T05:59:51.273Z,93.03
2022-08-26T06:02:19.005Z,93.04
2022-08-26T06:04:47.087Z,92.98
2022-08-26T06:07:16.374Z,93.13
2022-08-26T06:09:44.202Z,93.06
2022-08-26T06:12:15.167Z,93.11
2022-08-26T06:14:42.746Z,93.02
2022-08-26T06:17:10.514Z,93.12
2022-08-26T06:19:38.179Z,93.09
2022-08-26T06:22:23.878Z,93.09
2022-08-26T06:25:09.883Z,93.26
2022-08-26T06:27:37.708Z,93.38
2022-08-26T06:30:09.060Z,93.17
2022-08-26T06:32:36.650Z,92.96
2022-08-26T06:35:06.471Z,92.77
2022-08-26T06:37:42.305Z,92.54
2022-08-26T06:40:11.779Z,92.56
2022-08-26T06:42:39.615Z,92.36
2022-08-26T06:45:11.909Z,92.35
2022-08-26T06:47:39.575Z,92.26
2022-08-26T06:50:08.832Z,92.13
2022-08-26T06:52:36.726Z,92.13
2022-08-26T06:55:05.898Z,92.04
2022-08-26T06:57:37.658Z,92.03
2022-08-26T07:00:15.813Z,91.85
2022-08-26T07:02:46.980Z,91.82
2022-08-26T07:05:15.797Z,91.75
2022-08-26T07:07:43.359Z,91.60
2022-08-26T07:10:11.526Z,91.36
2022-08-26T07:12:39.226Z,91.52
2022-08-26T07:15:10.871Z,91.36
2022-08-26T07:17:38.619Z,91.27
2022-08-26T07:20:10.833Z,91.10
2022-08-26T07:22:38.555Z,91.05
2022-08-26T07:25:08.534Z,91.08
2022-08-26T07:27:37.716Z,90.99
2022-08-26T07:30:07.745Z,90.80
2022-08-26T07:32:36.921Z,90.71
2022-08-26T07:35:06.459Z,90.35
2022-08-26T07:37:35.417Z,90.58
2022-08-26T07:40:04.503Z,90.46
2022-08-26T07:42:32.190Z,90.45
2022-08-26T07:45:00.062Z,90.26
2022-08-26T07:47:27.605Z,90.26
2022-08-26T07:49:57.016Z,90.28
2022-08-26T07:52:27.558Z,90.01
2022-08-26T07:54:57.401Z,89.96
2022-08-26T07:57:25.697Z,89.68
2022-08-26T07:59:55.123Z,89.53
2022-08-26T08:02:24.189Z,89.33
2022-08-26T08:04:52.552Z,88.84
2022-08-26T08:07:20.475Z,88.69
2022-08-26T08:09:48.916Z,88.52
2022-08-26T08:12:17.016Z,88.42
2022-08-26T08:14:46.286Z,87.95
2022-08-26T08:17:16.838Z,87.47
2022-08-26T08:19:44.452Z,86.87
2022-08-26T08:22:17.355Z,86.17
2022-08-26T08:24:46.272Z,85.51
2022-08-26T08:27:22.837Z,84.76
2022-08-26T08:29:53.567Z,84.33
2022-08-26T08:32:22.548Z,83.57
2022-08-26T08:34:50.193Z,83.20
2022-08-26T08:37:18.209Z,82.73
2022-08-26T08:39:46.542Z,82.29
2022-08-26T08:42:43.190Z,81.98
2022-08-26T08:45:14.750Z,81.70
2022-08-26T08:47:51.357Z,81.42
2022-08-26T08:50:27.195Z,81.12
2022-08-26T08:53:04.150Z,80.86
2022-08-26T08:55:51.071Z,80.37
2022-08-26T08:58:24.449Z,79.58
2022-08-26T09:01:00.204Z,78.81
2022-08-26T09:03:47.031Z,78.37
2022-08-26T09:06:19.822Z,78.07
2022-08-26T09:08:50.551Z,77.36
2022-08-26T09:11:19.890Z,76.64
2022-08-26T09:13:51.271Z,76.28
2022-08-26T09:16:23.931Z,75.70
2022-08-26T09:19:05.455Z,74.55
2022-08-26T09:21:33.531Z,73.41
2022-08-26T09:24:03.965Z,73.00
2022-08-26T09:26:45.342Z,72.57
2022-08-26T09:29:24.138Z,71.55
2022-08-26T09:31:52.825Z,70.92
2022-08-26T09:34:25.211Z,70.34
2022-08-26T09:36:54.838Z,69.25
2022-08-26T09:39:33.523Z,68.28
2022-08-26T09:42:08.489Z,67.66
2022-08-26T09:44:53.747Z,66.92
2022-08-26T09:47:25.501Z,67.15
2022-08-26T09:49:59.538Z,67.48
2022-08-26T09:52:27.176Z,67.44
2022-08-26T09:55:04.682Z,67.11
2022-08-26T09:57:37.455Z,66.96
2022-08-26T10:00:26.174Z,66.88
2022-08-26T10:02:58.170Z,66.06
2022-08-26T10:05:33.615Z,65.91
2022-08-26T10:08:17.242Z,65.29
2022-08-26T10:10:45.852Z,64.58
2022-08-26T10:13:17.785Z,63.94
2022-08-26T10:15:53.715Z,63.19
2022-08-26T10:18:28.779Z,62.89
2022-08-26T10:21:06.000Z,62.44
2022-08-26T10:26:20.347Z,60.98
2022-08-26T10:28:54.345Z,60.40
2022-08-26T10:31:38.296Z,60.18
2022-08-26T10:34:09.126Z,59.60
2022-08-26T10:37:14.701Z,57.86
2022-08-26T10:39:44.789Z,56.79
2022-08-26T10:42:21.786Z,57.50
2022-08-26T10:44:58.538Z,56.78
2022-08-26T10:47:36.758Z,55.44
2022-08-26T10:50:05.911Z,54.23
2022-08-26T10:52:52.361Z,54.19
2022-08-26T10:55:32.104Z,53.63
2022-08-26T10:58:12.682Z,52.94
2022-08-26T11:01:22.836Z,51.97
2022-08-26T11:03:58.118Z,52.82
2022-08-26T11:06:28.292Z,52.31
2022-08-26T11:08:57.471Z,51.81
2022-08-26T11:11:49.442Z,51.55
2022-08-26T11:14:41.030Z,51.18
2022-08-26T11:17:58.178Z,50.33
2022-08-26T11:20:36.942Z,49.75
2022-08-26T11:23:50.752Z,49.74
2022-08-26T11:26:37.779Z,49.96
2022-08-26T11:29:59.388Z,49.40
2022-08-26T11:32:48.681Z,49.06
2022-08-26T11:35:50.873Z,49.29
2022-08-26T11:38:26.858Z,49.01
2022-08-26T11:41:08.368Z,49.05
2022-08-26T11:43:37.642Z,48.86
2022-08-26T11:46:09.207Z,49.06
2022-08-26T11:48:39.628Z,49.10
2022-08-26T11:51:10.497Z,48.46
2022-08-26T11:53:40.193Z,48.00
2022-08-26T11:56:11.653Z,47.66
2022-08-26T11:58:43.688Z,47.39
2022-08-26T12:01:24.951Z,47.27
2022-08-26T12:03:53.791Z,47.17
2022-08-26T12:08:58.567Z,46.21
2022-08-26T12:11:28.808Z,45.80
2022-08-26T12:13:59.726Z,46.14
2022-08-26T12:16:30.172Z,46.14
2022-08-26T12:18:58.294Z,46.10
2022-08-26T12:21:34.609Z,45.76
2022-08-26T12:24:04.033Z,46.22
2022-08-26T12:26:35.290Z,45.78
2022-08-26T12:29:12.655Z,45.71
2022-08-26T12:31:49.149Z,45.68
2022-08-26T12:34:18.548Z,44.94
2022-08-26T12:36:48.734Z,44.39
2022-08-26T12:39:27.215Z,44.02
2022-08-26T12:41:57.233Z,43.44
2022-08-26T12:44:53.775Z,43.67
2022-08-26T12:47:39.053Z,43.50
2022-08-26T12:50:17.835Z,42.88
2022-08-26T12:52:55.721Z,43.08
2022-08-26T12:55:32.933Z,43.62
2022-08-26T12:58:24.843Z,43.54
2022-08-26T13:00:55.180Z,43.38
2022-08-26T13:03:43.029Z,43.32
2022-08-26T13:06:15.766Z,42.86
2022-08-26T13:08:45.025Z,43.15
2022-08-26T13:11:17.992Z,43.00
2022-08-26T13:13:45.810Z,42.84
2022-08-26T13:16:15.279Z,42.42
2022-08-26T13:18:42.992Z,41.96
2022-08-26T13:21:16.538Z,41.71
2022-08-26T13:23:44.502Z,41.71
2022-08-26T13:26:12.543Z,41.71
2022-08-26T13:28:40.620Z,41.32
2022-08-26T13:31:10.015Z,40.65
2022-08-26T13:33:38.007Z,40.92
2022-08-26T13:36:08.076Z,40.64
2022-08-26T13:38:35.942Z,40.96
2022-08-26T13:41:04.195Z,40.77
2022-08-26T13:43:32.370Z,40.38
2022-08-26T13:46:00.878Z,40.77
2022-08-26T13:48:28.872Z,40.48
2022-08-26T13:50:56.864Z,40.87
2022-08-26T13:53:24.666Z,40.60
2022-08-26T13:55:52.574Z,40.03
2022-08-26T13:58:20.345Z,39.78
2022-08-26T14:00:48.074Z,39.51
2022-08-26T14:03:16.328Z,39.85
2022-08-26T14:05:44.032Z,39.67
2022-08-26T14:08:11.706Z,40.20
2022-08-26T14:10:39.779Z,39.65
2022-08-26T14:13:07.680Z,39.44
2022-08-26T14:15:37.389Z,39.51
2022-08-26T14:18:08.809Z,39.44
2022-08-26T14:20:37.991Z,38.87
2022-08-26T14:23:14.369Z,38.80
2022-08-26T14:25:43.310Z,38.36
2022-08-26T14:28:11.603Z,38.13
2022-08-26T14:30:41.924Z,38.12
2022-08-26T14:33:12.816Z,37.58
2022-08-26T14:35:40.971Z,37.92
2022-08-26T14:38:17.128Z,38.11
2022-08-26T14:40:44.860Z,37.75
2022-08-26T14:43:14.578Z,37.36
2022-08-26T14:45:45.038Z,36.91
2022-08-26T14:48:12.755Z,36.36
2022-08-26T14:50:40.438Z,36.17
2022-08-26T14:53:26.233Z,36.32
2022-08-26T14:55:53.957Z,35.80
2022-08-26T14:58:21.650Z,35.71
2022-08-26T15:00:49.274Z,35.44
2022-08-26T15:05:49.465Z,34.86
2022-08-26T15:08:17.689Z,34.30
2022-08-26T15:10:45.418Z,33.70
2022-08-26T15:13:13.089Z,33.25
2022-08-26T15:15:40.739Z,33.04
2022-08-26T15:18:09.462Z,33.28
2022-08-26T15:20:37.638Z,32.95
2022-08-26T15:23:06.755Z,32.67
2022-08-26T15:25:34.647Z,32.65
2022-08-26T15:28:03.100Z,32.12
2022-08-26T15:30:31.155Z,32.06
2022-08-26T15:32:58.895Z,32.62
2022-08-26T15:35:26.856Z,32.76
2022-08-26T15:37:54.504Z,33.02
2022-08-26T15:40:22.241Z,33.12
2022-08-26T15:42:57.526Z,33.20
2022-08-26T15:45:29.114Z,33.47
2022-08-26T15:48:01.178Z,33.61
2022-08-26T15:50:30.556Z,33.73
2022-08-26T15:53:00.809Z,33.89
2022-08-26T15:55:28.512Z,34.26
2022-08-26T15:57:56.477Z,34.76
2022-08-26T16:00:24.442Z,35.27
2022-08-26T16:02:53.908Z,35.83
2022-08-26T16:05:21.602Z,36.00
2022-08-26T16:07:49.354Z,35.69
2022-08-26T16:10:17.986Z,35.79
2022-08-26T16:12:46.057Z,36.19
2022-08-26T16:15:14.249Z,36.63
2022-08-26T16:17:41.937Z,36.78
2022-08-26T16:20:10.782Z,37.51
2022-08-26T16:22:38.378Z,38.14
2022-08-26T16:25:07.468Z,38.41
2022-08-26T16:27:35.445Z,38.85
2022-08-26T16:30:05.395Z,38.94
2022-08-26T16:32:33.700Z,39.50
2022-08-26T16:35:01.268Z,39.84
2022-08-26T16:37:29.034Z,40.17
2022-08-26T16:39:56.812Z,40.57
2022-08-26T16:42:24.523Z,41.22
2022-08-26T16:44:52.187Z,41.37
2022-08-26T16:47:20.691Z,41.50
2022-08-26T16:49:48.912Z,41.92
2022-08-26T16:52:16.641Z,42.02
2022-08-26T16:54:44.396Z,42.11
2022-08-26T16:57:13.183Z,42.24
2022-08-26T16:59:41.476Z,42.48
2022-08-26T17:02:11.297Z,42.69
2022-08-26T17:04:42.174Z,42.67
2022-08-26T17:07:15.079Z,42.97
2022-08-26T17:09:42.716Z,43.05
2022-08-26T17:12:10.477Z,43.53
2022-08-26T17:14:38.202Z,44.02
2022-08-26T17:17:07.572Z,44.28
2022-08-26T17:19:40.902Z,44.14
2022-08-26T17:22:10.249Z,44.51
2022-08-26T17:24:41.030Z,45.11
2022-08-26T17:27:08.681Z,45.97
2022-08-26T17:29:36.364Z,46.61
2022-08-26T17:32:07.524Z,47.25
2022-08-26T17:34:35.133Z,47.44
2022-08-26T17:37:02.823Z,47.34
2022-08-26T17:39:30.549Z,47.69
2022-08-26T17:41:58.293Z,47.41
2022-08-26T17:44:26.006Z,47.62
2022-08-26T17:46:54.180Z,47.62
2022-08-26T17:49:21.885Z,48.38
2022-08-26T17:51:49.569Z,48.45
2022-08-26T17:54:17.265Z,49.05
2022-08-26T17:56:44.887Z,49.41
2022-08-26T17:59:13.089Z,49.89
2022-08-26T18:01:40.889Z,50.36
2022-08-26T18:04:09.531Z,50.64
2022-08-26T18:06:38.528Z,50.85
2022-08-26T18:09:06.404Z,51.35
2022-08-26T18:11:34.380Z,51.46
2022-08-26T18:14:02.016Z,51.41
2022-08-26T18:16:33.490Z,51.71
2022-08-26T18:19:01.466Z,52.32
2022-08-26T18:21:29.239Z,53.11
2022-08-26T18:23:57.001Z,53.20
2022-08-26T18:26:27.163Z,52.88
2022-08-26T18:28:55.417Z,53.17
2022-08-26T18:31:23.418Z,52.91
2022-08-26T18:33:51.423Z,52.81
2022-08-26T18:36:21.665Z,52.97
2022-08-26T18:38:50.795Z,53.12
2022-08-26T18:41:20.752Z,53.31
2022-08-26T18:43:49.899Z,52.97
2022-08-26T18:46:19.666Z,53.03
2022-08-26T18:48:50.852Z,53.48
2022-08-26T18:51:21.163Z,53.80
2022-08-26T18:53:49.415Z,54.30
2022-08-26T18:56:18.650Z,54.83
2022-08-26T18:58:46.968Z,55.37
2022-08-26T19:01:15.587Z,55.66
2022-08-26T19:03:44.121Z,55.99
2022-08-26T19:06:17.662Z,56.19
2022-08-26T19:08:46.307Z,56.42
2022-08-26T19:11:32.189Z,56.67
2022-08-26T19:14:07.361Z,56.88
2022-08-26T19:16:36.932Z,57.18
2022-08-26T19:19:04.752Z,57.20
2022-08-26T19:21:34.344Z,57.24
2022-08-26T19:24:05.272Z,57.45
2022-08-26T19:26:35.114Z,57.82
2022-08-26T19:29:04.828Z,58.24
2022-08-26T19:31:35.941Z,58.53
2022-08-26T19:34:06.312Z,59.04
2022-08-26T19:36:34.638Z,59.12
2022-08-26T19:39:07.721Z,59.41
2022-08-26T19:41:40.156Z,59.88
2022-08-26T19:44:12.638Z,60.17
2022-08-26T19:46:46.403Z,60.13
2022-08-26T19:49:14.974Z,60.21
2022-08-26T19:51:45.377Z,60.38
2022-08-26T19:54:15.797Z,60.75
2022-08-26T19:56:45.897Z,60.86
2022-08-26T19:59:22.340Z,61.13
2022-08-26T20:02:01.178Z,61.12
2022-08-26T20:04:34.198Z,61.41
2022-08-26T20:07:02.907Z,61.40
2022-08-26T20:09:31.949Z,61.64
2022-08-26T20:12:07.756Z,61.78
2022-08-26T20:14:35.575Z,62.28
2022-08-26T20:17:07.418Z,62.57
2022-08-26T20:19:54.692Z,62.92
2022-08-26T20:22:25.609Z,63.24
2022-08-26T20:24:54.517Z,63.38
2022-08-26T20:27:27.240Z,63.39
2022-08-26T20:30:11.804Z,63.36
2022-08-26T20:32:40.234Z,63.53
2022-08-26T20:35:11.265Z,63.50
2022-08-26T20:37:39.867Z,63.63
2022-08-26T20:40:12.352Z,64.04
2022-08-26T20:42:42.000Z,64.07
2022-08-26T20:45:11.037Z,64.42
2022-08-26T20:47:41.822Z,64.62
2022-08-26T20:50:16.389Z,65.07
2022-08-26T20:52:44.313Z,65.15
2022-08-26T20:55:12.769Z,65.18
2022-08-26T20:57:43.078Z,64.95
2022-08-26T21:00:20.301Z,64.42
2022-08-26T21:02:50.394Z,64.07
2022-08-26T21:05:21.184Z,63.95
2022-08-26T21:07:50.814Z,64.38
2022-08-26T21:10:20.572Z,64.77
2022-08-26T21:12:49.453Z,65.01
2022-08-26T21:15:17.946Z,65.34
2022-08-26T21:17:45.703Z,65.43
2022-08-26T21:20:13.773Z,65.53
2022-08-26T21:22:42.665Z,65.53
2022-08-26T21:25:11.344Z,65.78
2022-08-26T21:27:42.064Z,65.55
2022-08-26T21:30:13.430Z,65.42
2022-08-26T21:32:41.252Z,65.46
2022-08-26T21:35:10.680Z,65.46
2022-08-26T21:37:38.534Z,65.43
2022-08-26T21:40:09.546Z,65.71
2022-08-26T21:42:37.870Z,65.84
2022-08-26T21:45:07.507Z,66.04
2022-08-26T21:47:41.230Z,66.21
2022-08-26T21:50:10.054Z,66.40
2022-08-26T21:52:39.444Z,66.61
2022-08-26T21:55:09.719Z,66.70
2022-08-26T21:57:42.699Z,66.77
2022-08-26T22:00:15.043Z,66.81
2022-08-26T22:02:45.693Z,66.93
2022-08-26T22:05:17.249Z,67.17
2022-08-26T22:07:48.003Z,67.26
2022-08-26T22:10:15.849Z,67.26
2022-08-26T22:12:43.990Z,67.49
2022-08-26T22:15:14.437Z,67.52
2022-08-26T22:17:43.643Z,67.51
2022-08-26T22:20:16.718Z,67.71
2022-08-26T22:22:45.460Z,67.94
2022-08-26T22:25:16.404Z,67.99
2022-08-26T22:27:49.086Z,68.25
2022-08-26T22:30:19.205Z,68.25
2022-08-26T22:32:50.495Z,68.37
2022-08-26T22:35:28.184Z,68.57
2022-08-26T22:37:59.066Z,68.66
2022-08-26T22:40:27.732Z,68.82
2022-08-26T22:42:58.835Z,69.05
2022-08-26T22:45:31.178Z,69.29
2022-08-26T22:48:00.993Z,69.41
2022-08-26T22:50:29.357Z,69.53
2022-08-26T22:52:57.498Z,69.59
2022-08-26T22:55:26.051Z,69.74
2022-08-26T22:57:56.927Z,69.72
2022-08-26T23:00:28.973Z,69.95
2022-08-26T23:03:01.988Z,70.01
2022-08-26T23:05:40.393Z,70.15
2022-08-26T23:08:09.444Z,70.21
2022-08-26T23:10:41.090Z,70.22
2022-08-26T23:13:09.251Z,70.26
2022-08-26T23:15:37.843Z,70.45
2022-08-26T23:18:07.281Z,70.68
2022-08-26T23:20:35.837Z,70.81
2022-08-26T23:23:04.481Z,70.83
2022-08-26T23:25:34.168Z,70.70
2022-08-26T23:28:05.946Z,70.96
2022-08-26T23:30:37.962Z,71.14
2022-08-26T23:33:06.421Z,71.28
2022-08-26T23:35:34.258Z,71.49
2022-08-26T23:38:04.440Z,71.55
2022-08-26T23:40:35.075Z,71.53
2022-08-26T23:43:06.471Z,71.62
2022-08-26T23:45:35.714Z,71.73
2022-08-26T23:48:04.715Z,71.85
2022-08-26T23:50:51.359Z,71.88
2022-08-26T23:53:24.794Z,71.99
2022-08-26T23:55:53.929Z,72.02
2022-08-26T23:58:22.577Z,72.29
